Time;durP1;ratioP1;P1;durP2;ratioP2;P2;SDS_P1;SDS_P2;PMS_P1;PMS_P2;Temp;Humidity;BMP_temperature;BMP_pressure;BME280_temperature;BME280_humidity;BME280_pressure;Samples;Min_cycle;Max_cycle;Signal;HPM_P1;HPM_P2
2021/08/26 00:00:09;;;;;;;9.20;7.03;;;17.50;99.90;;;;;;10468119;28;20333;-84
2021/08/26 00:10:38;;;;;;;7.30;6.60;;;17.50;99.90;;;;;;10462382;28;20268;-85
2021/08/26 00:15:43;;;;;;;7.57;6.87;;;17.50;99.90;;;;;;10452558;28;20227;-84
2021/08/26 00:20:51;;;;;;;7.37;6.73;;;17.50;99.90;;;;;;10474690;28;20200;-85
2021/08/26 00:25:53;;;;;;;8.83;6.97;;;17.40;99.90;;;;;;10462006;28;20699;-85
2021/08/26 00:30:55;;;;;;;8.50;7.70;;;17.40;99.90;;;;;;10479508;28;20303;-86
2021/08/26 00:35:59;;;;;;;7.50;6.80;;;17.30;99.90;;;;;;10478396;28;20252;-84
2021/08/26 00:41:01;;;;;;;8.83;7.93;;;17.30;99.90;;;;;;10450085;28;20235;-84
2021/08/26 00:46:03;;;;;;;7.63;7.00;;;17.20;99.90;;;;;;10463283;28;20244;-85
2021/08/26 00:51:07;;;;;;;10.97;7.60;;;17.20;99.90;;;;;;10499747;28;20210;-84
2021/08/26 00:56:14;;;;;;;8.40;7.60;;;17.10;99.90;;;;;;10483143;28;20217;-85
2021/08/26 01:01:21;;;;;;;8.70;7.80;;;17.00;99.90;;;;;;10468799;28;20276;-86
2021/08/26 01:06:34;;;;;;;7.77;7.07;;;17.00;99.90;;;;;;10505979;28;20208;-84
2021/08/26 01:11:38;;;;;;;8.13;7.43;;;16.90;99.90;;;;;;10481157;28;20273;-85
2021/08/26 01:16:42;;;;;;;13.37;7.27;;;16.80;99.90;;;;;;10438682;28;20696;-85
2021/08/26 01:21:46;;;;;;;8.40;7.60;;;16.80;99.90;;;;;;10468204;28;20220;-85
2021/08/26 01:26:53;;;;;;;10.63;7.47;;;16.80;99.90;;;;;;10476340;28;20228;-85
2021/08/26 01:31:55;;;;;;;9.70;7.60;;;16.70;99.90;;;;;;10373633;28;20294;-83
2021/08/26 01:36:57;;;;;;;10.30;7.37;;;16.60;99.90;;;;;;10481465;28;20257;-84
2021/08/26 01:42:01;;;;;;;8.37;7.50;;;16.60;99.90;;;;;;10343869;28;20215;-83
2021/08/26 01:47:09;;;;;;;9.83;7.73;;;16.50;99.90;;;;;;10480182;28;20251;-84
2021/08/26 01:52:11;;;;;;;7.83;6.90;;;16.50;99.90;;;;;;10449189;28;20402;-85
2021/08/26 01:57:15;;;;;;;7.57;6.80;;;16.50;99.90;;;;;;10463211;28;20680;-84
2021/08/26 02:02:17;;;;;;;7.90;7.13;;;16.50;99.90;;;;;;10449905;28;20201;-85
2021/08/26 02:07:19;;;;;;;7.13;6.43;;;16.50;99.90;;;;;;10492587;28;20221;-83
2021/08/26 02:12:23;;;;;;;7.97;7.27;;;16.50;99.90;;;;;;10477234;28;20199;-85
2021/08/26 02:17:25;;;;;;;7.70;6.90;;;16.40;99.90;;;;;;10419275;28;20221;-83
2021/08/26 02:22:27;;;;;;;8.33;7.50;;;16.40;99.90;;;;;;10461696;28;20208;-84
2021/08/26 02:27:30;;;;;;;8.20;7.30;;;16.30;99.90;;;;;;10479377;28;20722;-83
2021/08/26 02:32:32;;;;;;;9.20;8.40;;;16.30;99.90;;;;;;10457643;28;20235;-84
2021/08/26 02:37:35;;;;;;;8.10;7.17;;;16.30;99.90;;;;;;10492086;28;20224;-85
2021/08/26 02:42:39;;;;;;;9.17;7.30;;;16.30;99.90;;;;;;10475152;28;20219;-85
2021/08/26 02:47:41;;;;;;;8.03;7.23;;;16.20;99.90;;;;;;10476000;28;20232;-83
2021/08/26 02:52:43;;;;;;;8.80;7.70;;;16.20;99.90;;;;;;10422762;28;20657;-84
2021/08/26 02:57:46;;;;;;;14.00;8.30;;;16.20;99.90;;;;;;10478194;28;20277;-84
2021/08/26 03:02:48;;;;;;;7.90;7.10;;;16.20;99.90;;;;;;10479307;28;20346;-85
2021/08/26 03:07:51;;;;;;;8.60;7.67;;;16.20;99.90;;;;;;10474806;28;20311;-85
2021/08/26 03:12:55;;;;;;;12.13;7.93;;;16.20;99.90;;;;;;10443990;28;20803;-83
2021/08/26 03:17:57;;;;;;;7.70;6.87;;;16.30;99.90;;;;;;10457661;28;20227;-84
2021/08/26 03:23:00;;;;;;;7.67;6.97;;;16.30;99.90;;;;;;10421406;28;20239;-84
2021/08/26 03:28:04;;;;;;;8.20;7.40;;;16.40;99.90;;;;;;10449145;28;20228;-83
2021/08/26 03:33:06;;;;;;;9.87;8.40;;;16.50;99.90;;;;;;10448161;28;20657;-85
2021/08/26 03:38:08;;;;;;;8.70;7.80;;;16.60;99.90;;;;;;10421895;28;20225;-85
2021/08/26 03:43:12;;;;;;;7.90;7.13;;;16.70;99.90;;;;;;10479799;28;20212;-85
2021/08/26 03:48:14;;;;;;;9.67;7.47;;;16.80;99.90;;;;;;10442121;28;20710;-83
2021/08/26 03:53:16;;;;;;;8.37;7.57;;;16.80;99.90;;;;;;10455942;28;20204;-85
2021/08/26 03:58:20;;;;;;;8.90;8.00;;;16.90;99.90;;;;;;10479907;28;20235;-85
2021/08/26 04:03:22;;;;;;;7.80;7.07;;;16.90;99.90;;;;;;10500307;28;20193;-85
2021/08/26 04:08:24;;;;;;;7.03;6.43;;;16.90;99.90;;;;;;10473674;28;20221;-83
2021/08/26 04:13:28;;;;;;;8.37;7.53;;;16.90;99.90;;;;;;10352163;28;20283;-85
2021/08/26 04:18:31;;;;;;;8.13;7.07;;;16.90;99.90;;;;;;10439306;28;20363;-85
2021/08/26 04:23:33;;;;;;;7.77;7.00;;;16.90;99.90;;;;;;10494992;28;20197;-86
2021/08/26 04:28:36;;;;;;;7.57;6.90;;;16.90;99.90;;;;;;10479475;28;20229;-85
2021/08/26 04:33:38;;;;;;;7.23;6.53;;;16.90;99.90;;;;;;10346972;28;20676;-83
2021/08/26 04:38:40;;;;;;;7.77;7.07;;;16.90;99.90;;;;;;10313924;28;20223;-83
2021/08/26 04:43:44;;;;;;;8.03;7.33;;;16.90;99.90;;;;;;10475983;28;20212;-84
2021/08/26 04:48:46;;;;;;;9.13;8.20;;;17.00;99.90;;;;;;10463730;28;20252;-84
2021/08/26 04:53:48;;;;;;;10.37;7.40;;;17.00;99.90;;;;;;10484880;28;20238;-85
2021/08/26 04:58:52;;;;;;;8.57;7.77;;;17.00;99.90;;;;;;10460388;28;20339;-84
2021/08/26 05:03:54;;;;;;;8.73;7.93;;;17.00;99.90;;;;;;10484617;28;20570;-84
2021/08/26 05:08:56;;;;;;;8.67;7.77;;;17.10;99.90;;;;;;10443677;28;20212;-84
2021/08/26 05:13:59;;;;;;;8.27;7.47;;;17.10;99.90;;;;;;10435529;28;20197;-85
2021/08/26 05:19:01;;;;;;;9.20;8.30;;;17.20;99.90;;;;;;10462574;28;20232;-85
2021/08/26 05:24:04;;;;;;;10.07;8.80;;;17.30;99.90;;;;;;10448077;28;20292;-86
2021/08/26 05:29:08;;;;;;;8.97;8.10;;;17.30;99.90;;;;;;10420349;28;20289;-85
2021/08/26 05:34:10;;;;;;;9.17;8.20;;;17.40;99.90;;;;;;10331494;28;20565;-85
2021/08/26 05:39:12;;;;;;;8.27;7.40;;;17.40;99.90;;;;;;10338929;28;20688;-86
2021/08/26 05:44:17;;;;;;;8.30;7.50;;;17.50;99.90;;;;;;10466721;28;20201;-85
2021/08/26 05:49:19;;;;;;;9.23;8.43;;;17.50;99.90;;;;;;10447053;28;20212;-86
2021/08/26 05:54:21;;;;;;;9.40;8.50;;;17.60;99.90;;;;;;10446364;28;20250;-86
2021/08/26 05:59:25;;;;;;;9.27;8.37;;;17.70;99.90;;;;;;10475301;28;20546;-85
2021/08/26 06:04:27;;;;;;;9.90;8.90;;;17.70;99.90;;;;;;10319738;28;20213;-85
2021/08/26 06:09:29;;;;;;;10.40;9.50;;;17.80;99.90;;;;;;10408975;28;20225;-85
2021/08/26 06:14:32;;;;;;;11.20;8.50;;;17.80;99.90;;;;;;10321047;28;20209;-85
2021/08/26 06:19:34;;;;;;;10.67;9.50;;;17.80;99.90;;;;;;10308551;28;20228;-84
2021/08/26 06:24:37;;;;;;;11.20;9.67;;;17.90;99.90;;;;;;10327510;28;20311;-85
2021/08/26 06:29:41;;;;;;;10.80;8.57;;;17.90;99.90;;;;;;10483490;28;20231;-85
2021/08/26 06:34:44;;;;;;;11.17;9.97;;;17.90;99.90;;;;;;10443025;28;20282;-85
2021/08/26 06:39:46;;;;;;;12.67;10.10;;;17.90;99.90;;;;;;10328181;28;20657;-85
2021/08/26 06:44:51;;;;;;;14.30;10.17;;;17.80;99.90;;;;;;10372362;28;20257;-85
2021/08/26 06:49:56;;;;;;;11.13;9.93;;;17.80;99.90;;;;;;10311666;28;20224;-84
2021/08/26 06:54:59;;;;;;;9.40;8.50;;;17.80;99.90;;;;;;10437313;28;20713;-85
2021/08/26 07:00:04;;;;;;;10.03;9.13;;;17.90;99.90;;;;;;10437296;28;20193;-84
2021/08/26 07:05:07;;;;;;;9.00;8.13;;;17.90;99.90;;;;;;10331180;28;20228;-85
2021/08/26 07:10:10;;;;;;;13.73;9.30;;;18.00;99.90;;;;;;10328224;28;20648;-86
2021/08/26 07:15:14;;;;;;;10.10;9.10;;;18.00;99.90;;;;;;10430659;28;20266;-85
2021/08/26 07:20:16;;;;;;;11.77;10.67;;;18.00;99.90;;;;;;10422157;28;20193;-85
2021/08/26 07:25:18;;;;;;;11.87;10.20;;;18.10;99.90;;;;;;10432671;28;20229;-85
2021/08/26 07:30:22;;;;;;;12.30;10.60;;;18.10;99.90;;;;;;10459841;28;20213;-85
2021/08/26 07:35:24;;;;;;;14.77;10.20;;;18.10;99.90;;;;;;10440216;28;20700;-86
2021/08/26 07:40:27;;;;;;;12.70;11.50;;;18.10;99.90;;;;;;10433995;28;20236;-85
2021/08/26 07:45:30;;;;;;;16.20;11.30;;;18.20;99.90;;;;;;10425479;28;20220;-84
2021/08/26 07:50:33;;;;;;;14.80;11.17;;;18.20;99.90;;;;;;10461008;28;20209;-84
2021/08/26 07:55:35;;;;;;;11.67;10.53;;;18.20;99.90;;;;;;10448631;28;20595;-84
2021/08/26 08:00:38;;;;;;;10.23;9.17;;;18.20;99.90;;;;;;10449783;28;20653;-84
2021/08/26 08:05:40;;;;;;;11.80;10.57;;;18.30;99.90;;;;;;10421161;28;20282;-84
2021/08/26 08:10:43;;;;;;;11.60;9.70;;;18.30;99.90;;;;;;10470785;28;20212;-84
2021/08/26 08:15:46;;;;;;;9.70;8.80;;;18.30;99.90;;;;;;10454535;28;20224;-84
2021/08/26 08:20:48;;;;;;;11.60;9.83;;;18.30;99.90;;;;;;10460928;28;20549;-84
2021/08/26 08:25:51;;;;;;;10.60;9.60;;;18.30;99.90;;;;;;10472292;28;20213;-84
2021/08/26 08:30:54;;;;;;;13.33;11.70;;;18.40;99.90;;;;;;10484826;28;20652;-84
2021/08/26 08:35:56;;;;;;;13.30;10.67;;;18.40;99.90;;;;;;10444233;28;20217;-84
2021/08/26 08:40:58;;;;;;;14.47;12.13;;;18.30;99.90;;;;;;10432160;28;20205;-84
2021/08/26 08:46:03;;;;;;;15.17;12.30;;;18.30;99.90;;;;;;10373892;28;20231;-84
2021/08/26 08:51:05;;;;;;;15.37;13.77;;;18.20;99.90;;;;;;10434113;28;20356;-83
2021/08/26 08:56:09;;;;;;;13.93;12.53;;;18.10;99.90;;;;;;10475399;28;20224;-83
2021/08/26 09:01:15;;;;;;;15.20;13.60;;;18.00;99.90;;;;;;10336889;28;20207;-83
2021/08/26 09:06:17;;;;;;;15.20;13.60;;;17.90;99.90;;;;;;10352754;28;20307;-83
2021/08/26 09:11:20;;;;;;;15.00;13.50;;;17.90;99.90;;;;;;10339475;28;20308;-83
2021/08/26 09:16:36;;;;;;;14.70;13.30;;;18.00;99.90;;;;;;10357337;28;20231;-84
2021/08/26 09:21:38;;;;;;;13.70;12.37;;;18.00;99.90;;;;;;10358345;28;20484;-85
2021/08/26 09:26:42;;;;;;;15.23;13.63;;;18.10;99.90;;;;;;10294092;28;20543;-85
2021/08/26 09:31:46;;;;;;;15.60;13.90;;;18.10;99.90;;;;;;10367815;28;20694;-84
2021/08/26 09:36:56;;;;;;;15.10;13.67;;;18.10;99.90;;;;;;10376689;28;20230;-83
2021/08/26 09:42:03;;;;;;;16.33;14.77;;;18.10;99.90;;;;;;10480210;28;20254;-83
2021/08/26 09:47:10;;;;;;;15.37;14.00;;;18.10;99.90;;;;;;10380378;28;20241;-84
2021/08/26 09:52:14;;;;;;;15.80;14.30;;;18.00;99.90;;;;;;10468956;28;20201;-84
2021/08/26 09:57:24;;;;;;;11.83;10.77;;;17.90;99.90;;;;;;10504462;28;20231;-83
2021/08/26 10:02:29;;;;;;;12.00;11.10;;;17.80;99.90;;;;;;10474527;28;20315;-84
2021/08/26 10:07:31;;;;;;;13.13;12.03;;;17.80;99.90;;;;;;10345109;28;20408;-84
2021/08/26 10:12:33;;;;;;;12.33;11.33;;;17.80;99.90;;;;;;10326312;28;20221;-84
2021/08/26 10:17:39;;;;;;;10.57;9.77;;;17.70;99.90;;;;;;10439566;28;20299;-83
2021/08/26 10:22:41;;;;;;;8.57;7.87;;;17.70;99.90;;;;;;10455825;28;20689;-84
2021/08/26 10:27:45;;;;;;;6.97;6.27;;;17.70;99.90;;;;;;10459067;28;20224;-84
2021/08/26 10:33:04;;;;;;;4.73;4.47;;;17.60;99.90;;;;;;10433867;28;20193;-82
2021/08/26 10:38:20;;;;;;;5.37;4.87;;;17.50;99.90;;;;;;10429690;28;20217;-82
2021/08/26 10:43:33;;;;;;;6.10;5.50;;;17.50;99.90;;;;;;10466225;28;20220;-82
2021/08/26 10:48:37;;;;;;;5.87;5.27;;;17.60;99.90;;;;;;10470065;28;20216;-82
2021/08/26 10:53:47;;;;;;;5.10;4.80;;;17.70;99.90;;;;;;10455872;28;20767;-81
2021/08/26 10:58:51;;;;;;;5.60;5.20;;;17.90;99.90;;;;;;10457307;28;20225;-82
2021/08/26 11:03:57;;;;;;;5.77;5.37;;;18.00;99.90;;;;;;10339862;28;20208;-82
2021/08/26 11:09:19;;;;;;;5.00;4.70;;;18.30;99.90;;;;;;10358896;28;20358;-82
2021/08/26 11:14:27;;;;;;;5.97;5.40;;;18.70;99.90;;;;;;10404949;28;20284;-82
2021/08/26 11:19:38;;;;;;;6.20;5.80;;;19.10;99.90;;;;;;10456562;28;20654;-81
2021/08/26 11:24:55;;;;;;;6.27;5.77;;;19.50;99.90;;;;;;10435728;28;20696;-82
2021/08/26 11:29:57;;;;;;;6.40;5.80;;;19.80;99.90;;;;;;10453704;28;20221;-81
2021/08/26 11:35:01;;;;;;;7.37;6.67;;;20.00;99.90;;;;;;10366591;28;20267;-83
2021/08/26 11:40:05;;;;;;;8.53;7.00;;;20.10;99.90;;;;;;10433392;28;20269;-81
2021/08/26 11:45:17;;;;;;;7.70;6.97;;;20.10;99.90;;;;;;10377312;28;20213;-83
2021/08/26 11:50:24;;;;;;;10.90;7.90;;;20.00;99.90;;;;;;10378645;28;20213;-82
2021/08/26 11:55:28;;;;;;;9.20;7.50;;;19.90;99.90;;;;;;10467318;28;20228;-82
2021/08/26 12:00:30;;;;;;;9.10;8.30;;;19.70;99.90;;;;;;10424219;28;20193;-81
2021/08/26 12:05:34;;;;;;;8.17;7.47;;;19.50;99.90;;;;;;10456129;28;20300;-81
2021/08/26 12:10:43;;;;;;;7.97;7.30;;;19.30;99.90;;;;;;10441112;28;20217;-81
2021/08/26 12:15:47;;;;;;;8.70;7.90;;;19.20;99.90;;;;;;10422855;28;20374;-82
2021/08/26 12:20:53;;;;;;;8.40;7.60;;;19.20;99.90;;;;;;10454943;28;20699;-81
2021/08/26 12:26:06;;;;;;;10.43;8.50;;;19.20;99.90;;;;;;10483433;28;20229;-81
2021/08/26 12:31:09;;;;;;;8.87;7.60;;;19.20;99.90;;;;;;10360658;28;20315;-81
2021/08/26 12:36:21;;;;;;;7.47;6.77;;;19.20;99.90;;;;;;10473684;28;20270;-81
2021/08/26 12:41:23;;;;;;;7.70;7.07;;;19.30;99.90;;;;;;10354356;28;20294;-81
2021/08/26 12:46:28;;;;;;;7.70;6.80;;;19.50;99.90;;;;;;10256366;28;20696;-81
2021/08/26 12:51:31;;;;;;;7.87;6.47;;;19.70;99.90;;;;;;10435023;28;20611;-81
2021/08/26 12:56:41;;;;;;;8.37;7.57;;;19.90;99.90;;;;;;10445553;28;20232;-81
2021/08/26 13:01:45;;;;;;;7.90;7.23;;;20.10;99.90;;;;;;10463921;28;20193;-81
2021/08/26 13:06:50;;;;;;;7.50;6.80;;;20.20;99.90;;;;;;10435175;28;20291;-81
2021/08/26 13:11:58;;;;;;;8.07;7.33;;;20.20;99.90;;;;;;10443529;28;20212;-81
2021/08/26 13:17:01;;;;;;;8.77;7.30;;;20.10;99.90;;;;;;10419563;28;20267;-81
2021/08/26 13:22:17;;;;;;;8.70;7.80;;;19.90;99.90;;;;;;10424522;28;20665;-81
2021/08/26 13:27:20;;;;;;;8.27;7.47;;;19.80;99.90;;;;;;10458657;28;20245;-81
2021/08/26 13:32:24;;;;;;;8.07;7.27;;;19.60;99.90;;;;;;10473139;28;20204;-81
2021/08/26 13:37:28;;;;;;;7.80;7.10;;;19.50;99.90;;;;;;10461507;28;20238;-81
2021/08/26 13:42:30;;;;;;;7.43;6.73;;;19.40;99.90;;;;;;10471699;28;20231;-81
2021/08/26 13:47:33;;;;;;;8.53;7.63;;;19.40;99.90;;;;;;10444677;28;20267;-81
2021/08/26 13:52:37;;;;;;;7.50;6.80;;;19.60;99.90;;;;;;10450233;28;20551;-81
2021/08/26 13:57:39;;;;;;;7.40;6.70;;;19.80;99.90;;;;;;10447475;28;20244;-81
2021/08/26 14:02:41;;;;;;;6.83;6.23;;;19.90;99.90;;;;;;10468094;28;20205;-81
2021/08/26 14:07:44;;;;;;;6.90;6.13;;;20.00;99.90;;;;;;10448829;28;20217;-81
2021/08/26 14:12:47;;;;;;;7.50;6.80;;;20.10;99.90;;;;;;10398081;28;20674;-81
2021/08/26 14:17:49;;;;;;;11.33;7.73;;;20.10;99.90;;;;;;10478345;28;20478;-81
2021/08/26 14:22:52;;;;;;;8.87;7.97;;;20.10;99.90;;;;;;10441143;28;20227;-82
2021/08/26 14:27:55;;;;;;;9.83;6.90;;;20.10;99.90;;;;;;10468754;28;20217;-82
2021/08/26 14:32:57;;;;;;;8.70;7.60;;;20.20;99.90;;;;;;10423845;28;20202;-82
2021/08/26 14:43:20;;;;;;;5.73;5.20;;;20.10;99.90;;;;;;10460428;28;20227;-82
2021/08/26 14:48:22;;;;;;;7.93;7.20;;;20.10;99.90;;;;;;10438145;28;20212;-82
2021/08/26 14:53:26;;;;;;;6.83;5.40;;;20.30;99.90;;;;;;10416532;28;20229;-82
2021/08/26 14:58:28;;;;;;;6.30;5.63;;;20.40;99.90;;;;;;10439414;28;20300;-82
2021/08/26 15:03:30;;;;;;;7.03;6.43;;;20.40;99.90;;;;;;10462461;28;20237;-82
2021/08/26 15:08:34;;;;;;;7.03;6.40;;;20.40;99.90;;;;;;10452197;28;20270;-82
2021/08/26 15:13:36;;;;;;;6.90;6.03;;;20.30;99.90;;;;;;10470268;28;20876;-82
2021/08/26 15:18:39;;;;;;;8.90;5.77;;;20.20;99.90;;;;;;10424602;28;20212;-82
2021/08/26 15:23:42;;;;;;;8.73;6.07;;;20.10;99.90;;;;;;10441536;28;20291;-82
2021/08/26 15:28:44;;;;;;;6.00;5.50;;;19.90;99.90;;;;;;10344862;28;20692;-83
2021/08/26 15:33:46;;;;;;;6.67;5.40;;;19.90;99.90;;;;;;10337293;28;20201;-82
2021/08/26 15:38:51;;;;;;;5.90;5.40;;;19.90;99.90;;;;;;10444797;28;20229;-82
2021/08/26 15:43:53;;;;;;;6.83;6.13;;;19.90;99.90;;;;;;10254073;28;20204;-82
2021/08/26 15:48:57;;;;;;;5.80;5.20;;;19.90;99.90;;;;;;10294918;28;20252;-82
2021/08/26 15:54:04;;;;;;;6.70;6.10;;;19.80;99.90;;;;;;10437075;28;20902;-82
2021/08/26 15:59:09;;;;;;;6.27;5.40;;;19.80;99.90;;;;;;10450554;28;20289;-82
2021/08/26 16:04:12;;;;;;;5.20;4.70;;;19.60;99.90;;;;;;10437824;28;20575;-82
2021/08/26 16:09:16;;;;;;;5.77;5.27;;;19.60;99.90;;;;;;10443909;28;20632;-82
2021/08/26 16:14:18;;;;;;;5.40;4.90;;;19.60;99.90;;;;;;10436967;28;20575;-83
2021/08/26 16:19:20;;;;;;;5.77;5.27;;;19.60;99.90;;;;;;10402644;28;20201;-82
2021/08/26 16:24:24;;;;;;;5.40;4.90;;;19.50;99.90;;;;;;10457655;28;20201;-82
2021/08/26 16:29:27;;;;;;;6.13;4.70;;;19.40;99.90;;;;;;10380275;28;20217;-82
2021/08/26 16:34:29;;;;;;;6.73;5.30;;;19.40;99.90;;;;;;10441344;28;20200;-82
2021/08/26 16:39:32;;;;;;;6.20;5.60;;;19.50;99.90;;;;;;10420363;28;20247;-82
2021/08/26 16:44:34;;;;;;;5.87;5.37;;;19.50;99.90;;;;;;10446990;28;20223;-82
2021/08/26 16:49:38;;;;;;;5.43;4.80;;;19.40;99.90;;;;;;10458587;28;20273;-82
2021/08/26 16:54:42;;;;;;;5.47;4.97;;;19.40;99.90;;;;;;10455809;28;20639;-82
2021/08/26 16:59:44;;;;;;;5.20;4.70;;;19.40;99.90;;;;;;10470693;28;20197;-82
2021/08/26 17:04:46;;;;;;;4.30;4.00;;;19.40;99.90;;;;;;10434217;28;20244;-82
2021/08/26 17:09:50;;;;;;;6.67;5.13;;;19.30;99.90;;;;;;10454029;28;20231;-82
2021/08/26 17:14:52;;;;;;;4.77;4.37;;;19.30;99.90;;;;;;10443106;28;20692;-81
2021/08/26 17:19:54;;;;;;;5.23;4.57;;;19.20;99.90;;;;;;10458395;28;20646;-81
2021/08/26 17:24:58;;;;;;;5.10;4.70;;;19.20;99.90;;;;;;10451046;28;20221;-82
2021/08/26 17:30:00;;;;;;;5.30;4.20;;;19.20;99.90;;;;;;10434000;28;20304;-82
2021/08/26 17:35:03;;;;;;;4.50;4.10;;;19.20;99.90;;;;;;10433773;28;20225;-82
2021/08/26 17:40:08;;;;;;;3.77;3.50;;;19.20;99.90;;;;;;10446087;28;20200;-83
2021/08/26 17:45:11;;;;;;;4.90;4.50;;;19.20;99.90;;;;;;10476212;28;20229;-82
2021/08/26 17:50:14;;;;;;;4.43;4.13;;;19.20;99.90;;;;;;10464318;28;20324;-82
2021/08/26 17:55:18;;;;;;;5.70;4.77;;;19.10;99.90;;;;;;10471956;28;20228;-82
2021/08/26 18:05:48;;;;;;;4.60;4.30;;;19.10;99.90;;;;;;10335078;22;20229;-84
2021/08/26 18:10:52;;;;;;;4.30;4.00;;;18.90;99.90;;;;;;10286465;28;20616;-83
2021/08/26 18:15:54;;;;;;;6.10;4.83;;;18.80;99.90;;;;;;10284867;28;20320;-84
2021/08/26 18:20:56;;;;;;;4.43;4.13;;;18.70;99.90;;;;;;10297371;28;20522;-83
2021/08/26 18:25:59;;;;;;;5.10;4.70;;;18.70;99.90;;;;;;10313288;28;20460;-83
2021/08/26 18:31:02;;;;;;;5.20;4.60;;;18.60;99.90;;;;;;10347271;28;20228;-83
2021/08/26 18:36:05;;;;;;;6.07;5.47;;;18.50;99.90;;;;;;10320771;28;20775;-83
2021/08/26 18:41:09;;;;;;;6.00;4.70;;;18.50;99.90;;;;;;10261494;28;20205;-83
2021/08/26 18:46:11;;;;;;;5.00;4.60;;;18.40;99.90;;;;;;10324682;28;20248;-84
2021/08/26 18:51:13;;;;;;;4.50;4.20;;;18.40;99.90;;;;;;10316160;28;20233;-83
2021/08/26 18:56:17;;;;;;;4.50;4.03;;;18.40;99.90;;;;;;10314593;28;20212;-83
2021/08/26 19:01:19;;;;;;;5.50;5.00;;;18.40;99.90;;;;;;10251936;28;20684;-83
2021/08/26 19:06:21;;;;;;;6.27;5.37;;;18.30;99.90;;;;;;10267087;28;20247;-84
2021/08/26 19:11:26;;;;;;;7.77;6.73;;;18.30;99.90;;;;;;10291748;28;20608;-83
2021/08/26 19:16:29;;;;;;;4.80;4.40;;;18.20;99.90;;;;;;10271206;28;20689;-83
2021/08/26 19:21:31;;;;;;;5.20;4.80;;;18.10;99.90;;;;;;10167820;28;20217;-83
2021/08/26 19:26:35;;;;;;;5.87;4.73;;;18.10;99.90;;;;;;10171302;29;20638;-83
2021/08/26 19:31:37;;;;;;;5.47;4.97;;;18.00;99.90;;;;;;10233492;28;20218;-83
2021/08/26 19:36:39;;;;;;;4.57;4.27;;;18.00;99.90;;;;;;10252031;28;20225;-83
2021/08/26 19:41:42;;;;;;;4.53;4.13;;;17.90;99.90;;;;;;10221111;28;20571;-83
2021/08/26 19:46:45;;;;;;;5.83;5.20;;;17.90;99.90;;;;;;10328442;28;20221;-83
2021/08/26 19:51:47;;;;;;;7.27;4.00;;;17.90;99.90;;;;;;10322058;28;20245;-83
2021/08/26 19:56:51;;;;;;;5.03;4.57;;;17.80;99.90;;;;;;10340449;28;20226;-83
2021/08/26 20:01:53;;;;;;;4.57;4.27;;;17.70;99.90;;;;;;10341763;28;20664;-83
2021/08/26 20:06:55;;;;;;;4.83;4.33;;;17.60;99.90;;;;;;10317591;28;20780;-83
2021/08/26 20:11:58;;;;;;;4.67;4.30;;;17.50;99.90;;;;;;10343481;28;20214;-83
2021/08/26 20:17:02;;;;;;;4.90;4.40;;;17.40;99.90;;;;;;10329144;28;20221;-83
2021/08/26 20:22:05;;;;;;;5.57;5.00;;;17.40;99.90;;;;;;10347115;28;20260;-83
2021/08/26 20:27:09;;;;;;;5.20;4.70;;;17.30;99.90;;;;;;10348722;28;20281;-83
2021/08/26 20:32:11;;;;;;;4.80;4.40;;;17.30;99.90;;;;;;10339991;28;20312;-83
2021/08/26 20:37:13;;;;;;;4.97;4.47;;;17.20;99.90;;;;;;10353943;28;20280;-83
2021/08/26 20:42:17;;;;;;;4.87;4.53;;;17.20;99.90;;;;;;10358790;28;20269;-83
2021/08/26 20:47:19;;;;;;;7.57;4.37;;;17.20;99.90;;;;;;10384561;28;20359;-83
2021/08/26 20:52:21;;;;;;;7.23;4.60;;;17.20;99.90;;;;;;10379038;28;20253;-83
2021/08/26 20:57:26;;;;;;;7.10;4.90;;;17.20;99.90;;;;;;10312572;28;20202;-83
2021/08/26 21:02:28;;;;;;;8.90;5.60;;;17.20;99.90;;;;;;10291244;28;20233;-83
2021/08/26 21:07:30;;;;;;;5.83;5.00;;;17.10;99.90;;;;;;10292448;28;20202;-83
2021/08/26 21:12:33;;;;;;;6.00;4.53;;;17.10;99.90;;;;;;10200653;28;20230;-84
2021/08/26 21:17:35;;;;;;;5.67;4.47;;;17.10;99.90;;;;;;10267872;28;20210;-83
2021/08/26 21:22:39;;;;;;;4.50;4.10;;;17.00;99.90;;;;;;10264839;28;20313;-83
2021/08/26 21:27:43;;;;;;;4.63;4.23;;;17.00;99.90;;;;;;10245061;28;20210;-83
2021/08/26 21:32:45;;;;;;;5.93;4.03;;;16.90;99.90;;;;;;10248394;28;20601;-83
2021/08/26 21:37:47;;;;;;;5.00;4.50;;;16.90;99.90;;;;;;10267259;28;20197;-83
2021/08/26 21:42:51;;;;;;;4.60;4.20;;;16.90;99.90;;;;;;10284896;28;20221;-83
2021/08/26 21:47:53;;;;;;;4.33;3.93;;;16.90;99.90;;;;;;10289011;28;20208;-84
2021/08/26 21:52:55;;;;;;;4.90;4.50;;;16.90;99.90;;;;;;10205704;28;20221;-83
2021/08/26 21:57:59;;;;;;;4.30;3.90;;;17.00;99.90;;;;;;10286309;28;20606;-83
2021/08/26 22:03:01;;;;;;;4.33;3.93;;;16.90;99.90;;;;;;10410474;28;20693;-83
2021/08/26 22:08:04;;;;;;;4.80;4.40;;;16.90;99.90;;;;;;10393818;28;20201;-83
2021/08/26 22:13:07;;;;;;;4.13;3.80;;;16.90;99.90;;;;;;10359872;28;20283;-83
2021/08/26 22:18:09;;;;;;;4.43;4.03;;;16.80;99.90;;;;;;10292080;28;20288;-83
2021/08/26 22:23:12;;;;;;;4.87;4.13;;;16.80;99.90;;;;;;10282726;28;20252;-83
2021/08/26 22:28:16;;;;;;;4.23;3.83;;;16.80;99.90;;;;;;10266187;28;20717;-83
2021/08/26 22:33:18;;;;;;;6.40;3.90;;;16.70;99.90;;;;;;10284686;28;20233;-83
2021/08/26 22:38:22;;;;;;;5.10;4.70;;;16.70;99.90;;;;;;10301275;28;20272;-83
2021/08/26 22:43:26;;;;;;;4.93;4.53;;;16.60;99.90;;;;;;10282138;28;20767;-83
2021/08/26 22:48:29;;;;;;;4.87;4.20;;;16.60;99.90;;;;;;10339939;28;20571;-83
2021/08/26 22:53:31;;;;;;;4.80;4.40;;;16.60;99.90;;;;;;10390303;28;20816;-83
2021/08/26 22:58:35;;;;;;;6.03;5.20;;;16.60;99.90;;;;;;10284429;28;20208;-83
2021/08/26 23:03:37;;;;;;;5.97;4.53;;;16.60;99.90;;;;;;10285404;28;20300;-83
2021/08/26 23:08:39;;;;;;;4.43;3.60;;;16.60;99.90;;;;;;10275813;28;20225;-83
2021/08/26 23:13:46;;;;;;;4.37;3.97;;;16.60;99.90;;;;;;10264438;28;20226;-83
2021/08/26 23:18:48;;;;;;;4.30;3.90;;;16.60;99.90;;;;;;10196902;29;20209;-83
2021/08/26 23:23:50;;;;;;;4.90;4.10;;;16.60;99.90;;;;;;10261595;28;20213;-83
2021/08/26 23:28:53;;;;;;;4.60;4.00;;;16.60;99.90;;;;;;10324688;28;20209;-83
2021/08/26 23:33:55;;;;;;;4.10;3.70;;;16.50;99.90;;;;;;10307750;28;20713;-83
2021/08/26 23:38:58;;;;;;;4.53;3.70;;;16.50;99.90;;;;;;10274606;28;20729;-83
2021/08/26 23:44:01;;;;;;;7.27;4.53;;;16.40;99.90;;;;;;10327109;28;20229;-84
2021/08/26 23:49:03;;;;;;;4.43;4.03;;;16.30;99.90;;;;;;10282177;28;20244;-83
2021/08/26 23:54:05;;;;;;;4.00;3.50;;;16.40;99.90;;;;;;10233798;28;20311;-83
2021/08/26 23:59:09;;;;;;;4.33;3.50;;;16.40;99.90;;;;;;10229072;28;20232;-83
